createdAt,value
2022-09-13T00:01:53.582Z,2.28
2022-09-13T00:05:35.142Z,2.22
2022-09-13T00:09:16.754Z,3.16
2022-09-13T00:12:58.452Z,2.09
2022-09-13T00:16:52.961Z,2.37
2022-09-13T00:24:14.643Z,4.09
2022-09-13T00:27:56.272Z,3.34
2022-09-13T00:35:17.982Z,3.02
2022-09-13T00:38:59.614Z,3.43
2022-09-13T00:42:41.380Z,3.08
2022-09-13T00:46:23.059Z,3.17
2022-09-13T00:50:04.679Z,3.67
2022-09-13T00:53:46.384Z,4.02
2022-09-13T00:57:28.103Z,5.04
2022-09-13T01:01:09.838Z,3.62
2022-09-13T01:04:51.391Z,2.67
2022-09-13T01:08:33.031Z,3.26
2022-09-13T01:12:14.895Z,4.27
2022-09-13T01:15:56.621Z,4.67
2022-09-13T01:19:38.312Z,4.09
2022-09-13T01:23:20.063Z,4.23
2022-09-13T01:27:01.683Z,3.53
2022-09-13T01:30:43.376Z,2.97
2022-09-13T01:34:25.025Z,3.83
2022-09-13T01:38:06.704Z,2.67
2022-09-13T01:41:48.401Z,3.73
2022-09-13T01:45:30.090Z,3.10
2022-09-13T01:49:11.716Z,4.03
2022-09-13T01:52:53.302Z,3.45
2022-09-13T01:56:34.893Z,2.38
2022-09-13T02:00:16.490Z,3.04
2022-09-13T02:03:58.163Z,3.70
2022-09-13T02:07:39.853Z,2.83
2022-09-13T02:11:21.456Z,3.23
2022-09-13T02:15:03.183Z,5.11
2022-09-13T02:18:44.931Z,4.01
2022-09-13T02:22:26.552Z,3.02
2022-09-13T02:26:08.357Z,3.03
2022-09-13T02:29:49.884Z,2.80
2022-09-13T02:33:31.550Z,4.99
2022-09-13T02:37:13.218Z,4.03
2022-09-13T02:40:54.949Z,3.49
2022-09-13T02:44:36.642Z,4.36
2022-09-13T02:48:18.343Z,3.73
2022-09-13T02:52:00.107Z,4.82
2022-09-13T02:55:41.889Z,4.72
2022-09-13T02:59:23.598Z,4.09
2022-09-13T03:03:05.629Z,5.84
2022-09-13T03:06:47.259Z,3.92
2022-09-13T03:10:29.024Z,4.25
2022-09-13T03:14:10.653Z,4.04
2022-09-13T03:17:52.346Z,3.81
2022-09-13T03:21:34.111Z,3.40
2022-09-13T03:25:15.860Z,4.61
2022-09-13T03:28:57.531Z,3.61
2022-09-13T03:32:39.344Z,4.85
2022-09-13T03:36:21.163Z,7.14
2022-09-13T03:40:03.057Z,5.68
2022-09-13T03:43:44.742Z,4.17
2022-09-13T03:47:26.436Z,4.22
2022-09-13T03:51:08.106Z,3.08
2022-09-13T03:54:49.789Z,3.38
2022-09-13T03:58:31.432Z,3.56
2022-09-13T04:02:13.342Z,5.37
2022-09-13T04:05:55.062Z,5.83
2022-09-13T04:09:36.899Z,5.77
2022-09-13T04:13:18.724Z,5.78
2022-09-13T04:17:00.644Z,4.70
2022-09-13T04:20:42.341Z,5.09
2022-09-13T04:24:24.004Z,3.43
2022-09-13T04:28:05.771Z,4.82
2022-09-13T04:31:47.781Z,4.83
2022-09-13T04:35:29.502Z,5.12
2022-09-13T04:39:11.247Z,4.84
2022-09-13T04:42:52.989Z,3.11
2022-09-13T04:46:34.694Z,3.45
2022-09-13T04:50:16.485Z,3.99
2022-09-13T04:53:58.137Z,3.03
2022-09-13T04:57:39.706Z,2.48
2022-09-13T05:01:24.830Z,4.87
2022-09-13T05:05:03.167Z,4.19
2022-09-13T05:08:44.894Z,3.80
2022-09-13T05:12:26.637Z,3.66
2022-09-13T05:16:08.407Z,3.30
2022-09-13T05:19:50.089Z,4.31
2022-09-13T05:23:31.701Z,2.88
2022-09-13T05:27:13.495Z,4.29
2022-09-13T05:30:55.368Z,4.55
2022-09-13T05:34:37.025Z,4.53
2022-09-13T05:38:18.881Z,6.78
2022-09-13T05:42:00.699Z,3.83
2022-09-13T05:45:42.481Z,3.95
2022-09-13T05:49:24.360Z,5.55
2022-09-13T05:53:06.192Z,5.32
2022-09-13T05:56:48.022Z,4.65
2022-09-13T06:00:29.744Z,4.68
2022-09-13T06:04:11.679Z,6.40
2022-09-13T06:07:53.656Z,5.93
2022-09-13T06:11:35.438Z,5.91
2022-09-13T06:15:17.139Z,5.27
2022-09-13T06:18:58.849Z,4.75
2022-09-13T06:22:40.590Z,5.62
2022-09-13T06:26:22.594Z,5.67
2022-09-13T06:30:04.384Z,4.93
2022-09-13T06:33:46.270Z,6.10
2022-09-13T06:37:28.148Z,7.36
2022-09-13T06:41:09.942Z,5.26
2022-09-13T06:44:51.677Z,4.57
2022-09-13T06:48:33.501Z,5.52
2022-09-13T06:52:15.273Z,5.41
2022-09-13T06:55:56.982Z,5.54
2022-09-13T06:59:38.754Z,5.16
2022-09-13T07:03:20.419Z,3.18
2022-09-13T07:07:02.063Z,3.08
2022-09-13T07:10:43.857Z,4.62
2022-09-13T07:14:25.628Z,4.87
2022-09-13T07:18:07.390Z,4.65
2022-09-13T07:21:49.081Z,4.57
2022-09-13T07:25:30.750Z,4.33
2022-09-13T07:29:12.558Z,4.82
2022-09-13T07:32:54.372Z,6.64
2022-09-13T07:36:36.129Z,5.37
2022-09-13T07:40:17.869Z,3.56
2022-09-13T07:43:59.560Z,6.15
2022-09-13T07:47:41.305Z,3.89
2022-09-13T07:51:22.910Z,3.41
2022-09-13T07:55:04.547Z,2.77
2022-09-13T07:58:46.344Z,3.86
2022-09-13T08:02:28.020Z,3.86
2022-09-13T08:06:09.453Z,2.74
2022-09-13T08:09:51.250Z,3.98
2022-09-13T08:13:32.860Z,2.97
2022-09-13T08:17:14.545Z,4.33
2022-09-13T08:20:56.175Z,4.34
2022-09-13T08:24:37.881Z,4.81
2022-09-13T08:28:19.601Z,4.11
2022-09-13T08:32:01.342Z,5.52
2022-09-13T08:35:42.991Z,2.83
2022-09-13T08:39:24.563Z,2.41
2022-09-13T08:43:06.172Z,2.32
2022-09-13T08:46:47.791Z,3.49
2022-09-13T08:50:29.373Z,2.62
2022-09-13T08:54:11.066Z,2.69
2022-09-13T08:57:52.638Z,2.48
2022-09-13T09:01:34.385Z,3.40
2022-09-13T09:05:16.008Z,2.97
2022-09-13T09:08:57.603Z,2.09
2022-09-13T09:12:39.295Z,3.63
2022-09-13T09:20:00.917Z,2.09
2022-09-13T09:27:22.599Z,2.29
2022-09-13T09:38:24.442Z,2.87
2022-09-13T09:42:05.939Z,1.83
2022-09-13T09:45:47.573Z,2.09
2022-09-13T09:49:29.117Z,2.76
2022-09-13T09:56:50.875Z,2.90
2022-09-13T10:00:32.444Z,1.70
2022-09-13T10:11:34.177Z,0.00
2022-09-13T10:22:35.947Z,0.00
2022-09-13T10:29:57.588Z,2.91
2022-09-13T10:33:39.283Z,2.87
2022-09-13T10:37:20.981Z,3.64
2022-09-13T10:41:02.650Z,3.69
2022-09-13T10:44:44.333Z,4.92
2022-09-13T10:48:25.946Z,2.72
2022-09-13T10:52:10.484Z,4.21
2022-09-13T11:03:09.375Z,0.00
2022-09-13T11:06:51.072Z,4.48
2022-09-13T11:10:32.714Z,2.70
2022-09-13T11:14:14.349Z,4.72
2022-09-13T11:17:55.973Z,4.64
2022-09-13T11:21:37.679Z,3.33
2022-09-13T11:25:19.258Z,2.69
2022-09-13T11:36:21.005Z,0.00
2022-09-13T11:40:02.687Z,2.35
2022-09-13T11:43:44.241Z,2.95
2022-09-13T11:47:25.860Z,2.03
2022-09-13T11:58:27.648Z,2.31
2022-09-13T12:09:29.351Z,0.00
2022-09-13T12:13:11.009Z,2.51
2022-09-13T12:16:52.777Z,2.09
2022-09-13T12:27:54.406Z,2.59
2022-09-13T12:31:36.083Z,3.09
2022-09-13T12:35:17.735Z,3.17
2022-09-13T12:38:59.409Z,2.98
2022-09-13T12:42:41.081Z,3.91
2022-09-13T12:46:22.802Z,2.43
2022-09-13T12:50:21.611Z,4.53
2022-09-13T12:53:46.254Z,2.44
2022-09-13T12:57:27.823Z,2.95
2022-09-13T13:01:09.580Z,2.96
2022-09-13T13:04:51.088Z,1.99
2022-09-13T13:08:32.754Z,2.48
2022-09-13T13:12:14.367Z,2.09
2022-09-13T13:19:36.017Z,1.83
2022-09-13T13:23:17.805Z,2.63
2022-09-13T13:26:59.565Z,3.02
2022-09-13T13:30:41.276Z,3.05
2022-09-13T13:34:22.879Z,3.91
2022-09-13T13:41:44.626Z,3.86
2022-09-13T13:52:46.372Z,0.00
2022-09-13T14:03:48.150Z,0.00
2022-09-13T14:14:49.895Z,0.00
2022-09-13T14:25:51.608Z,0.00
2022-09-13T14:36:53.764Z,0.00
2022-09-13T14:47:55.106Z,0.00
2022-09-13T14:58:56.975Z,0.00
2022-09-13T15:09:58.697Z,0.00
2022-09-13T15:21:03.453Z,0.00
2022-09-13T15:32:05.176Z,0.00
2022-09-13T15:43:08.039Z,0.00
2022-09-13T15:54:10.656Z,0.00
2022-09-13T16:05:12.419Z,0.00
2022-09-13T16:16:16.271Z,0.00
2022-09-13T16:27:17.915Z,0.00
2022-09-13T16:38:19.641Z,0.00
2022-09-13T16:49:21.421Z,0.00
2022-09-13T17:00:24.150Z,0.00
2022-09-13T17:11:25.985Z,0.00
2022-09-13T17:22:27.618Z,0.00
2022-09-13T17:33:30.395Z,0.00
2022-09-13T17:44:32.137Z,0.00
2022-09-13T17:55:34.905Z,0.00
2022-09-13T18:06:36.697Z,0.00
2022-09-13T18:17:38.553Z,0.00
2022-09-13T18:28:41.428Z,0.00
2022-09-13T18:39:44.445Z,0.00
2022-09-13T18:50:46.301Z,0.00
2022-09-13T18:54:29.028Z,1.70
2022-09-13T18:58:13.670Z,2.29
2022-09-13T19:09:14.737Z,2.22
2022-09-13T19:20:16.658Z,0.00
2022-09-13T19:27:39.580Z,3.48
2022-09-13T19:38:41.650Z,0.00
2022-09-13T19:46:04.596Z,2.09
2022-09-13T19:49:46.292Z,3.07
2022-09-13T20:00:48.241Z,0.00
2022-09-13T20:11:50.162Z,0.00
2022-09-13T20:22:52.141Z,2.19
2022-09-13T20:30:15.014Z,2.74
2022-09-13T20:41:18.951Z,0.00
2022-09-13T20:48:40.751Z,1.90
2022-09-13T20:59:42.694Z,0.00
2022-09-13T21:10:44.305Z,0.00
2022-09-13T21:21:46.191Z,0.00
2022-09-13T21:32:47.789Z,0.00
2022-09-13T21:43:50.569Z,0.00
2022-09-13T21:54:52.310Z,0.00
2022-09-13T22:05:54.074Z,0.00
2022-09-13T22:09:35.665Z,2.20
2022-09-13T22:20:37.418Z,0.00
2022-09-13T22:31:39.178Z,0.00
2022-09-13T22:39:00.849Z,1.96
2022-09-13T22:50:02.607Z,0.00
2022-09-13T23:01:04.372Z,0.00
2022-09-13T23:12:06.086Z,0.00
2022-09-13T23:19:27.733Z,1.96
2022-09-13T23:23:09.307Z,3.44
2022-09-13T23:26:52.109Z,2.54
2022-09-13T23:30:33.772Z,5.57
2022-09-13T23:34:15.531Z,4.26
2022-09-13T23:37:57.122Z,2.09
2022-09-13T23:45:18.803Z,3.18
2022-09-13T23:49:00.543Z,2.80
2022-09-13T23:52:42.132Z,2.52
